Time;durP1;ratioP1;P1;durP2;ratioP2;P2;SDS_P1;SDS_P2;PMS_P1;PMS_P2;Temp;Humidity;BMP_temperature;BMP_pressure;BME280_temperature;BME280_humidity;BME280_pressure;Samples;Min_cycle;Max_cycle;Signal;HPM_P1;HPM_P2
2022/06/15 00:00:33;;;;;;;6.57;2.42;;;16.80;80.90;;;;;;2096127;28;20016;-69
2022/06/15 00:01:34;;;;;;;3.83;2.28;;;16.80;80.80;;;;;;2095765;28;20012;-69
2022/06/15 00:02:34;;;;;;;5.78;2.33;;;16.70;80.00;;;;;;2095978;28;20672;-69
2022/06/15 00:03:38;;;;;;;3.95;2.30;;;16.70;80.10;;;;;;2097253;28;20107;-69
2022/06/15 00:04:39;;;;;;;6.18;2.33;;;16.70;81.20;;;;;;2096685;28;20538;-69
2022/06/15 00:05:42;;;;;;;3.95;1.75;;;16.70;80.90;;;;;;2096415;28;20017;-69
2022/06/15 00:06:43;;;;;;;6.43;2.10;;;16.70;81.20;;;;;;2094273;28;20119;-69
2022/06/15 00:07:44;;;;;;;6.90;2.15;;;16.60;81.50;;;;;;2098183;28;20017;-69
2022/06/15 00:08:47;;;;;;;5.00;2.15;;;16.70;82.00;;;;;;2095711;28;20048;-69
2022/06/15 00:09:47;;;;;;;4.22;2.20;;;16.60;82.00;;;;;;2096389;28;20024;-69
2022/06/15 00:10:48;;;;;;;6.45;2.30;;;16.60;81.20;;;;;;2096470;28;20061;-69
2022/06/15 00:11:48;;;;;;;4.38;2.38;;;16.60;81.20;;;;;;2095022;28;20024;-69
2022/06/15 00:12:50;;;;;;;6.32;2.22;;;16.60;81.60;;;;;;2096424;28;20510;-69
2022/06/15 00:13:53;;;;;;;7.57;2.88;;;16.50;82.60;;;;;;2096719;28;20077;-69
2022/06/15 00:14:55;;;;;;;6.72;2.45;;;16.50;83.90;;;;;;2096962;28;20017;-69
2022/06/15 00:15:56;;;;;;;6.30;2.28;;;16.50;83.10;;;;;;2095736;28;20023;-69
2022/06/15 00:16:56;;;;;;;8.75;2.65;;;16.50;83.00;;;;;;2094953;28;20028;-69
2022/06/15 00:17:57;;;;;;;7.30;2.50;;;16.50;83.60;;;;;;2095579;28;20178;-69
2022/06/15 00:18:58;;;;;;;7.57;2.50;;;16.40;83.50;;;;;;2099397;28;20094;-69
2022/06/15 00:19:58;;;;;;;9.02;2.47;;;16.50;84.30;;;;;;2095467;28;20028;-69
2022/06/15 00:21:00;;;;;;;5.18;2.50;;;16.40;85.70;;;;;;2095279;28;20099;-69
2022/06/15 00:22:00;;;;;;;6.97;2.30;;;16.40;85.20;;;;;;2095234;28;20033;-69
2022/06/15 00:23:01;;;;;;;5.90;2.78;;;16.40;85.30;;;;;;2096304;28;20020;-69
2022/06/15 00:24:02;;;;;;;7.82;3.03;;;16.40;86.20;;;;;;2097732;28;20027;-69
2022/06/15 00:25:03;;;;;;;5.03;2.25;;;16.40;86.90;;;;;;2096726;28;20017;-69
2022/06/15 00:26:05;;;;;;;6.20;2.80;;;16.40;86.20;;;;;;2109751;28;20032;-69
2022/06/15 00:27:05;;;;;;;5.95;2.33;;;16.30;87.20;;;;;;2110618;28;20024;-69
2022/06/15 00:28:06;;;;;;;6.05;2.60;;;16.30;87.30;;;;;;2096784;28;20024;-69
2022/06/15 00:29:07;;;;;;;8.38;2.50;;;16.30;87.80;;;;;;2095863;28;20055;-69
2022/06/15 00:30:08;;;;;;;8.15;3.20;;;16.30;87.90;;;;;;2095499;28;20024;-69
2022/06/15 00:31:09;;;;;;;7.75;3.15;;;16.30;87.80;;;;;;2095932;28;20032;-69
2022/06/15 00:32:10;;;;;;;4.20;2.03;;;16.30;88.70;;;;;;2097789;28;20112;-69
2022/06/15 00:33:10;;;;;;;4.97;2.55;;;16.30;88.80;;;;;;2095940;28;20035;-69
2022/06/15 00:34:11;;;;;;;5.50;2.67;;;16.20;88.30;;;;;;2096321;28;20016;-69
2022/06/15 00:35:13;;;;;;;4.35;2.03;;;16.20;89.10;;;;;;2096346;28;20107;-69
2022/06/15 00:36:18;;;;;;;5.38;2.60;;;16.20;88.10;;;;;;2094569;28;20065;-69
2022/06/15 00:37:18;;;;;;;5.90;2.55;;;16.20;89.20;;;;;;2095127;28;20146;-69
2022/06/15 00:38:19;;;;;;;5.97;2.45;;;16.20;89.80;;;;;;2094009;28;20128;-69
2022/06/15 00:39:20;;;;;;;8.20;2.78;;;16.20;90.50;;;;;;2097334;28;20027;-69
2022/06/15 00:40:20;;;;;;;6.88;2.63;;;16.20;90.60;;;;;;2096925;28;20020;-69
2022/06/15 00:41:24;;;;;;;5.28;2.25;;;16.20;90.80;;;;;;2096822;28;20795;-69
2022/06/15 00:42:29;;;;;;;4.75;2.70;;;16.20;91.40;;;;;;2094019;28;20033;-69
2022/06/15 00:43:43;;;;;;;4.53;2.30;;;16.10;91.10;;;;;;2095471;28;20024;-69
2022/06/15 00:44:44;;;;;;;5.22;2.58;;;16.10;91.50;;;;;;2094568;28;20021;-69
2022/06/15 00:45:44;;;;;;;5.18;2.30;;;16.10;91.30;;;;;;2095697;28;20465;-69
2022/06/15 00:46:51;;;;;;;6.43;2.40;;;16.10;90.30;;;;;;2096916;28;20032;-69
2022/06/15 00:47:52;;;;;;;6.30;2.55;;;16.10;91.00;;;;;;2097016;28;20981;-69
2022/06/15 00:49:04;;;;;;;5.47;2.45;;;16.10;91.40;;;;;;2094941;28;20472;-69
2022/06/15 00:50:19;;;;;;;6.70;2.67;;;16.10;91.50;;;;;;2095176;28;20526;-69
2022/06/15 00:51:21;;;;;;;6.47;2.58;;;16.10;92.10;;;;;;2094828;28;20515;-69
2022/06/15 00:52:45;;;;;;;8.05;2.47;;;16.00;90.80;;;;;;2097276;28;20053;-69
2022/06/15 00:53:46;;;;;;;6.90;2.42;;;16.10;91.60;;;;;;2096474;28;20029;-69
2022/06/15 00:54:50;;;;;;;6.03;3.00;;;16.00;91.40;;;;;;2095259;28;20024;-69
2022/06/15 00:55:51;;;;;;;4.78;2.30;;;16.00;91.80;;;;;;2097605;28;20020;-69
2022/06/15 00:56:54;;;;;;;8.38;3.05;;;16.00;92.20;;;;;;2095570;28;20035;-69
2022/06/15 00:57:55;;;;;;;7.50;2.60;;;16.00;92.40;;;;;;2097656;28;21200;-69
2022/06/15 00:59:12;;;;;;;4.32;2.40;;;16.00;92.30;;;;;;2095743;28;20029;-69
2022/06/15 01:00:13;;;;;;;5.18;2.10;;;16.00;92.90;;;;;;2093609;28;20570;-69
2022/06/15 01:01:14;;;;;;;4.93;2.30;;;15.90;90.70;;;;;;2093900;28;20036;-69
2022/06/15 01:02:15;;;;;;;7.13;2.78;;;16.00;90.40;;;;;;2089888;28;20081;-69
2022/06/15 01:03:15;;;;;;;6.20;2.30;;;16.00;91.40;;;;;;2095208;28;20165;-69
2022/06/15 01:04:19;;;;;;;5.25;2.42;;;16.00;91.80;;;;;;2095054;28;20048;-69
2022/06/15 01:05:28;;;;;;;5.70;2.75;;;16.00;92.40;;;;;;2096353;28;20031;-69
2022/06/15 01:06:47;;;;;;;5.90;2.67;;;16.00;92.10;;;;;;2093784;28;20752;-69
2022/06/15 01:07:59;;;;;;;5.97;1.95;;;15.90;93.60;;;;;;2096972;28;20024;-69
2022/06/15 01:09:05;;;;;;;5.50;2.90;;;15.90;92.40;;;;;;2095303;28;20037;-69
2022/06/15 01:10:25;;;;;;;4.32;2.17;;;15.90;91.90;;;;;;2094833;28;20063;-69
2022/06/15 01:11:34;;;;;;;6.85;2.80;;;15.90;92.10;;;;;;2096903;28;20024;-69
2022/06/15 01:12:55;;;;;;;6.80;2.30;;;15.90;92.50;;;;;;2095753;28;20056;-69
2022/06/15 01:14:33;;;;;;;6.78;2.83;;;15.90;92.60;;;;;;2093929;28;20578;-70
2022/06/15 01:15:44;;;;;;;5.65;2.95;;;15.80;92.80;;;;;;2095497;28;20031;-69
2022/06/15 01:16:51;;;;;;;6.20;2.45;;;15.80;92.10;;;;;;2095569;28;20468;-69
2022/06/15 01:18:18;;;;;;;6.72;2.70;;;15.80;92.00;;;;;;2095381;28;20025;-69
2022/06/15 01:19:34;;;;;;;7.60;2.58;;;15.80;92.50;;;;;;2094303;28;20021;-69
2022/06/15 01:20:48;;;;;;;7.90;2.58;;;15.80;93.20;;;;;;2095994;28;20495;-69
2022/06/15 01:22:04;;;;;;;4.00;2.25;;;15.80;93.00;;;;;;2095146;28;20021;-69
2022/06/15 01:23:16;;;;;;;6.05;2.20;;;15.70;92.80;;;;;;2096666;28;20027;-69
2022/06/15 01:24:56;;;;;;;4.45;2.42;;;15.70;92.60;;;;;;2094356;28;20032;-69
2022/06/15 01:26:34;;;;;;;5.40;2.00;;;15.70;93.40;;;;;;2094823;28;20070;-69
2022/06/15 01:27:49;;;;;;;6.93;2.80;;;15.70;93.50;;;;;;2094544;28;20110;-69
2022/06/15 01:29:10;;;;;;;4.55;2.30;;;15.70;93.50;;;;;;2094357;28;20095;-69
2022/06/15 01:30:23;;;;;;;5.80;2.20;;;15.70;92.90;;;;;;2093694;28;20481;-69
2022/06/15 01:31:41;;;;;;;4.60;2.33;;;15.60;93.10;;;;;;2097346;28;20075;-69
2022/06/15 01:32:51;;;;;;;7.95;2.50;;;15.60;93.20;;;;;;2094497;28;20017;-69
2022/06/15 01:34:09;;;;;;;7.32;2.30;;;15.60;94.30;;;;;;2094348;28;20369;-69
2022/06/15 01:35:39;;;;;;;8.30;2.45;;;15.60;94.00;;;;;;2097683;28;20565;-69
2022/06/15 01:37:04;;;;;;;7.38;2.67;;;15.60;94.50;;;;;;2077700;28;20045;-70
2022/06/15 01:38:21;;;;;;;6.15;2.58;;;15.60;94.90;;;;;;2082189;28;20040;-69
2022/06/15 01:39:34;;;;;;;4.70;2.50;;;15.50;94.10;;;;;;2095294;28;20012;-69
2022/06/15 01:40:41;;;;;;;2.50;2.00;;;15.50;94.50;;;;;;2096047;28;20031;-69
2022/06/15 01:41:59;;;;;;;3.42;2.40;;;15.50;94.40;;;;;;2096694;28;20009;-69
2022/06/15 01:43:07;;;;;;;4.90;3.05;;;15.50;95.60;;;;;;2097384;28;20024;-69
2022/06/15 01:44:21;;;;;;;6.38;2.63;;;15.40;95.60;;;;;;2096701;28;20397;-69
2022/06/15 01:45:27;;;;;;;3.80;2.40;;;15.40;95.70;;;;;;2095906;28;20082;-69
2022/06/15 01:46:28;;;;;;;7.13;2.72;;;15.40;95.90;;;;;;2095178;28;20052;-69
2022/06/15 01:47:32;;;;;;;6.13;2.85;;;15.40;95.40;;;;;;2100540;28;20017;-69
2022/06/15 01:48:34;;;;;;;5.88;2.30;;;15.40;96.20;;;;;;2096927;28;20016;-69
2022/06/15 01:49:42;;;;;;;4.78;2.65;;;15.40;95.60;;;;;;2095298;28;20074;-69
2022/06/15 01:50:51;;;;;;;5.57;2.67;;;15.40;96.20;;;;;;2096057;28;20036;-69
2022/06/15 01:51:53;;;;;;;6.55;2.80;;;15.40;96.30;;;;;;2097000;28;20021;-69
2022/06/15 01:53:12;;;;;;;5.28;3.08;;;15.30;96.50;;;;;;2096695;28;20024;-69
2022/06/15 01:54:37;;;;;;;6.97;2.57;;;15.30;97.00;;;;;;2095384;28;20028;-69
2022/06/15 01:55:50;;;;;;;5.53;2.70;;;15.30;98.00;;;;;;2091663;28;20029;-69
2022/06/15 01:56:54;;;;;;;6.07;2.60;;;15.20;97.80;;;;;;2096264;28;20024;-69
2022/06/15 01:57:59;;;;;;;8.75;3.00;;;15.20;96.90;;;;;;2096610;28;20024;-69
2022/06/15 01:59:18;;;;;;;5.90;2.70;;;15.20;98.20;;;;;;2096872;28;20023;-69
2022/06/15 02:00:19;;;;;;;5.70;2.47;;;15.20;98.40;;;;;;2097564;28;20040;-69
2022/06/15 02:01:50;;;;;;;2.63;2.17;;;15.10;97.70;;;;;;2096269;28;20098;-69
2022/06/15 02:02:56;;;;;;;4.80;2.60;;;15.10;99.20;;;;;;2096243;28;20017;-69
2022/06/15 02:04:17;;;;;;;7.13;3.03;;;15.10;99.30;;;;;;2095141;28;20559;-69
2022/06/15 02:05:36;;;;;;;;;;;15.10;99.90;;;;;;2097850;28;20021;-69
2022/06/15 02:06:52;;;;;;;5.82;2.92;;;15.00;99.90;;;;;;2097477;28;19970;-69
2022/06/15 02:08:00;;;;;;;6.30;3.17;;;14.90;99.90;;;;;;2096945;28;20024;-69
2022/06/15 02:09:11;;;;;;;4.75;3.08;;;14.90;99.90;;;;;;2094956;28;20028;-69
2022/06/15 02:10:18;;;;;;;7.10;2.95;;;14.90;99.90;;;;;;2097110;28;20024;-69
2022/06/15 02:11:41;;;;;;;5.15;3.10;;;14.90;99.90;;;;;;2095616;28;20043;-69
2022/06/15 02:13:07;;;;;;;7.97;2.63;;;14.90;99.90;;;;;;2094740;28;20395;-69
2022/06/15 02:14:19;;;;;;;5.68;2.72;;;14.90;99.90;;;;;;2096353;28;20028;-69
2022/06/15 02:15:25;;;;;;;6.25;3.35;;;14.80;99.90;;;;;;2096078;28;20056;-69
2022/06/15 02:16:46;;;;;;;4.72;2.88;;;14.80;99.90;;;;;;2095452;28;20419;-69
2022/06/15 02:17:48;;;;;;;6.20;3.20;;;14.80;99.90;;;;;;2096344;28;20020;-69
2022/06/15 02:18:50;;;;;;;4.75;2.78;;;14.70;99.90;;;;;;2097200;28;20021;-69
2022/06/15 02:19:57;;;;;;;6.00;2.92;;;14.70;99.90;;;;;;2096528;28;20380;-69
2022/06/15 02:21:05;;;;;;;3.53;2.58;;;14.70;99.90;;;;;;2098610;28;20040;-69
2022/06/15 02:22:10;;;;;;;6.95;2.78;;;14.70;99.90;;;;;;2098861;28;20024;-69
2022/06/15 02:23:13;;;;;;;6.75;3.10;;;14.70;99.90;;;;;;2095512;28;20024;-69
2022/06/15 02:24:17;;;;;;;7.45;3.10;;;14.70;99.90;;;;;;2097222;28;20114;-69
2022/06/15 02:25:21;;;;;;;6.70;3.25;;;14.70;99.90;;;;;;2094464;28;20031;-69
2022/06/15 02:26:25;;;;;;;4.82;3.30;;;14.60;99.90;;;;;;2096254;28;20028;-69
2022/06/15 02:27:29;;;;;;;7.53;3.15;;;14.60;99.90;;;;;;2099748;28;20029;-69
2022/06/15 02:28:35;;;;;;;5.03;2.95;;;14.60;99.90;;;;;;2096433;28;20107;-69
2022/06/15 02:29:38;;;;;;;5.90;3.30;;;14.60;99.90;;;;;;2096694;28;20090;-69
2022/06/15 02:30:40;;;;;;;5.00;2.90;;;14.60;99.90;;;;;;2098028;28;20020;-69
2022/06/15 02:31:42;;;;;;;3.88;2.95;;;14.60;99.90;;;;;;2095152;28;20051;-69
2022/06/15 02:32:45;;;;;;;7.00;3.03;;;14.50;99.90;;;;;;2096780;28;20021;-69
2022/06/15 02:33:54;;;;;;;5.13;3.05;;;14.50;99.90;;;;;;2096199;28;20085;-69
2022/06/15 02:34:55;;;;;;;7.00;3.30;;;14.50;99.90;;;;;;2097483;28;20111;-69
2022/06/15 02:35:57;;;;;;;5.35;2.90;;;14.50;99.90;;;;;;2097113;28;20029;-69
2022/06/15 02:36:58;;;;;;;5.10;3.03;;;14.50;99.90;;;;;;2095673;28;20059;-69
2022/06/15 02:37:58;;;;;;;4.95;3.15;;;14.40;99.90;;;;;;2096452;28;20071;-69
2022/06/15 02:39:01;;;;;;;5.55;2.75;;;14.40;99.90;;;;;;2097216;28;20031;-69
2022/06/15 02:40:02;;;;;;;5.25;2.95;;;14.40;99.90;;;;;;2095903;28;20548;-69
2022/06/15 02:41:03;;;;;;;7.55;3.17;;;14.40;99.90;;;;;;2096727;28;20052;-69
2022/06/15 02:42:34;;;;;;;4.95;3.40;;;14.40;99.90;;;;;;2097942;28;20032;-69
2022/06/15 02:43:37;;;;;;;9.77;3.47;;;14.30;99.90;;;;;;2094904;28;20021;-69
2022/06/15 02:44:37;;;;;;;5.53;2.88;;;14.30;99.90;;;;;;2096063;28;20044;-69
2022/06/15 02:45:40;;;;;;;5.15;2.97;;;14.30;99.90;;;;;;2097570;28;20043;-70
2022/06/15 02:46:45;;;;;;;5.35;3.15;;;14.30;99.90;;;;;;2097899;28;20063;-69
2022/06/15 02:47:46;;;;;;;5.18;3.45;;;14.30;99.90;;;;;;2096037;28;20029;-69
2022/06/15 02:48:47;;;;;;;4.03;3.10;;;14.30;99.90;;;;;;2098452;28;20115;-70
2022/06/15 02:49:51;;;;;;;4.60;3.05;;;14.30;99.90;;;;;;2096912;28;20469;-69
2022/06/15 02:51:00;;;;;;;5.57;3.58;;;14.30;99.90;;;;;;2098434;28;20070;-69
2022/06/15 02:52:05;;;;;;;5.82;3.20;;;14.20;99.90;;;;;;2097844;28;20055;-69
2022/06/15 02:53:13;;;;;;;5.82;3.55;;;14.20;99.90;;;;;;2097111;28;20047;-69
2022/06/15 02:54:27;;;;;;;7.03;3.80;;;14.20;99.90;;;;;;2095103;28;20395;-69
2022/06/15 02:55:28;;;;;;;7.47;3.10;;;14.20;99.90;;;;;;2096595;28;20099;-68
2022/06/15 02:56:30;;;;;;;5.72;3.17;;;14.10;99.90;;;;;;2095505;28;20012;-68
2022/06/15 02:57:49;;;;;;;5.00;3.08;;;14.10;99.90;;;;;;2095910;28;20025;-68
2022/06/15 02:58:53;;;;;;;5.15;3.13;;;14.10;99.90;;;;;;2095585;28;20392;-68
2022/06/15 02:59:55;;;;;;;10.48;3.58;;;14.10;99.90;;;;;;2100559;28;20019;-68
2022/06/15 03:00:57;;;;;;;5.80;3.47;;;14.10;99.90;;;;;;2096011;28;20103;-68
2022/06/15 03:01:58;;;;;;;7.72;4.10;;;14.10;99.90;;;;;;2095754;28;20021;-68
2022/06/15 03:02:58;;;;;;;9.90;4.07;;;14.10;99.90;;;;;;2095170;28;20392;-68
2022/06/15 03:03:59;;;;;;;6.70;4.05;;;14.00;99.90;;;;;;2097112;28;20021;-68
2022/06/15 03:04:59;;;;;;;5.25;3.28;;;14.00;99.90;;;;;;2096348;28;20112;-68
2022/06/15 03:06:00;;;;;;;8.65;3.67;;;14.00;99.90;;;;;;2095545;28;20116;-68
2022/06/15 03:07:01;;;;;;;4.50;3.47;;;14.00;99.90;;;;;;2100194;28;20025;-68
2022/06/15 03:08:02;;;;;;;8.98;4.22;;;14.00;99.90;;;;;;2093588;28;20025;-68
2022/06/15 03:09:03;;;;;;;6.15;3.70;;;14.00;99.90;;;;;;2096451;28;20020;-68
2022/06/15 03:10:04;;;;;;;6.20;3.38;;;14.00;99.90;;;;;;2097570;28;20538;-68
2022/06/15 03:11:05;;;;;;;6.57;3.83;;;14.00;99.90;;;;;;2098362;28;20025;-68
2022/06/15 03:12:07;;;;;;;9.32;4.15;;;14.00;99.90;;;;;;2097874;28;20032;-71
2022/06/15 03:13:07;;;;;;;6.70;4.38;;;14.00;99.90;;;;;;2097441;28;20036;-68
2022/06/15 03:14:08;;;;;;;6.18;3.60;;;14.00;99.90;;;;;;2098438;28;20025;-68
2022/06/15 03:15:10;;;;;;;6.10;4.20;;;14.00;99.90;;;;;;2097719;28;20020;-68
2022/06/15 03:16:10;;;;;;;8.63;4.28;;;14.00;99.90;;;;;;2095732;28;20028;-68
2022/06/15 03:17:11;;;;;;;6.85;3.60;;;14.00;99.90;;;;;;2096615;28;20044;-68
2022/06/15 03:18:12;;;;;;;7.90;3.40;;;14.00;99.90;;;;;;2096225;28;20035;-68
2022/06/15 03:19:13;;;;;;;6.90;3.97;;;14.00;99.90;;;;;;2096396;28;20046;-68
2022/06/15 03:20:13;;;;;;;8.73;3.72;;;14.00;99.90;;;;;;2096541;28;20021;-68
2022/06/15 03:21:14;;;;;;;8.27;4.22;;;14.00;99.90;;;;;;2110755;28;20464;-68
2022/06/15 03:22:15;;;;;;;9.10;4.05;;;14.00;99.90;;;;;;2111346;28;20515;-68
2022/06/15 03:23:15;;;;;;;9.13;4.40;;;14.00;99.90;;;;;;2096929;28;20028;-68
2022/06/15 03:24:16;;;;;;;8.20;4.20;;;14.00;99.90;;;;;;2096403;28;20089;-68
2022/06/15 03:25:18;;;;;;;7.75;4.80;;;14.00;99.90;;;;;;2098468;28;20032;-68
2022/06/15 03:26:19;;;;;;;8.52;4.53;;;14.00;99.90;;;;;;2099985;28;20032;-68
2022/06/15 03:27:19;;;;;;;4.68;3.60;;;14.00;99.90;;;;;;2095414;28;20027;-68
2022/06/15 03:28:20;;;;;;;7.20;3.60;;;14.00;99.90;;;;;;2096466;28;20024;-68
2022/06/15 03:29:21;;;;;;;8.65;4.75;;;13.90;99.90;;;;;;2097785;28;20032;-68
2022/06/15 03:30:22;;;;;;;8.18;3.88;;;14.00;99.90;;;;;;2096429;28;20489;-68
2022/06/15 03:31:23;;;;;;;8.15;4.13;;;14.00;99.90;;;;;;2095303;28;20448;-68
2022/06/15 03:32:23;;;;;;;7.45;3.72;;;14.00;99.90;;;;;;2095643;28;20059;-68
2022/06/15 03:33:24;;;;;;;9.40;4.13;;;14.00;99.90;;;;;;2099199;28;20747;-68
2022/06/15 03:34:24;;;;;;;5.53;3.83;;;14.00;99.90;;;;;;2096012;28;20503;-68
2022/06/15 03:35:34;;;;;;;8.43;3.95;;;14.00;99.90;;;;;;2096915;28;20029;-68
2022/06/15 03:36:34;;;;;;;6.20;4.00;;;14.00;99.90;;;;;;2099673;28;20374;-68
2022/06/15 03:37:35;;;;;;;5.75;3.65;;;14.00;99.90;;;;;;2099130;28;20086;-68
2022/06/15 03:38:36;;;;;;;8.02;3.65;;;14.00;99.90;;;;;;2096152;28;20043;-68
2022/06/15 03:39:37;;;;;;;8.82;3.75;;;14.00;99.90;;;;;;2096319;28;20021;-68
2022/06/15 03:40:43;;;;;;;6.53;3.22;;;14.00;99.90;;;;;;2095504;28;20020;-68
2022/06/15 03:41:44;;;;;;;8.90;3.95;;;14.00;99.90;;;;;;2096078;28;20024;-68
2022/06/15 03:42:44;;;;;;;5.57;3.33;;;14.00;99.90;;;;;;2097754;28;20044;-68
2022/06/15 03:43:45;;;;;;;4.85;3.30;;;14.00;99.90;;;;;;2095438;28;20028;-68
2022/06/15 03:44:46;;;;;;;9.85;4.18;;;14.00;99.90;;;;;;2096309;28;20033;-68
2022/06/15 03:45:47;;;;;;;8.40;4.13;;;14.00;99.90;;;;;;2096515;28;20077;-68
2022/06/15 03:46:47;;;;;;;10.45;4.45;;;14.00;99.90;;;;;;2098939;28;20017;-70
2022/06/15 03:47:49;;;;;;;8.70;4.03;;;14.00;99.90;;;;;;2098194;28;20102;-68
2022/06/15 03:48:49;;;;;;;7.55;4.22;;;14.00;99.90;;;;;;2097993;28;20024;-68
2022/06/15 03:49:52;;;;;;;7.60;3.88;;;14.00;99.90;;;;;;2097260;28;20103;-68
2022/06/15 03:50:53;;;;;;;10.45;4.53;;;14.00;99.90;;;;;;2095508;28;20036;-68
2022/06/15 03:51:53;;;;;;;7.40;4.13;;;14.10;99.90;;;;;;2097606;28;20073;-68
2022/06/15 03:52:54;;;;;;;7.75;4.85;;;14.10;99.90;;;;;;2097989;28;20021;-68
2022/06/15 03:53:55;;;;;;;6.07;3.83;;;14.00;99.90;;;;;;2097108;28;20036;-68
2022/06/15 03:54:55;;;;;;;6.15;3.85;;;14.10;99.90;;;;;;2096760;28;20024;-69
2022/06/15 03:55:56;;;;;;;10.70;4.60;;;14.10;99.90;;;;;;2095476;28;20033;-69
2022/06/15 03:56:57;;;;;;;8.35;3.80;;;14.20;99.90;;;;;;2096831;28;20543;-69
2022/06/15 03:57:57;;;;;;;6.95;4.00;;;14.20;99.90;;;;;;2095949;28;20032;-69
2022/06/15 03:58:58;;;;;;;7.93;3.72;;;14.40;99.90;;;;;;2095708;28;20361;-69
2022/06/15 03:59:59;;;;;;;6.18;4.13;;;14.40;99.90;;;;;;2094828;28;20434;-69
2022/06/15 04:00:59;;;;;;;5.13;3.65;;;14.50;99.90;;;;;;2095919;28;20021;-69
2022/06/15 04:02:00;;;;;;;7.43;3.40;;;14.60;99.90;;;;;;2095691;28;20020;-69
2022/06/15 04:03:01;;;;;;;8.52;3.97;;;14.70;99.90;;;;;;2098255;28;20050;-69
2022/06/15 04:04:01;;;;;;;7.30;3.22;;;14.80;99.90;;;;;;2092511;28;20021;-69
2022/06/15 04:05:02;;;;;;;8.00;3.15;;;15.00;99.90;;;;;;2095764;28;20081;-69
2022/06/15 04:06:03;;;;;;;8.20;4.13;;;15.10;99.90;;;;;;2096440;28;20104;-69
2022/06/15 04:07:05;;;;;;;5.93;3.55;;;15.30;99.90;;;;;;2097722;28;20020;-69
2022/06/15 04:09:27;;;;;;;6.93;3.42;;;15.60;99.90;;;;;;2099282;28;20032;-69
2022/06/15 04:10:28;;;;;;;5.20;3.17;;;15.80;99.90;;;;;;2096407;28;20060;-69
2022/06/15 04:12:47;;;;;;;5.18;3.53;;;16.30;99.90;;;;;;2101385;28;20024;-69
2022/06/15 04:13:48;;;;;;;8.82;4.03;;;16.60;99.90;;;;;;2097618;28;20103;-69
2022/06/15 04:14:49;;;;;;;8.82;4.22;;;16.90;99.90;;;;;;2099619;28;20050;-69
2022/06/15 04:15:50;;;;;;;6.03;3.55;;;17.20;99.90;;;;;;2096873;28;20036;-69
2022/06/15 04:16:53;;;;;;;5.53;3.20;;;17.50;98.70;;;;;;2097997;28;20044;-69
2022/06/15 04:17:54;;;;;;;8.43;3.90;;;17.70;96.80;;;;;;2097024;28;20064;-69
2022/06/15 04:18:55;;;;;;;5.78;2.95;;;17.90;95.40;;;;;;2096299;28;20021;-69
2022/06/15 04:21:15;;;;;;;7.93;3.57;;;18.40;91.80;;;;;;2096881;28;20036;-69
2022/06/15 04:22:16;;;;;;;6.18;2.95;;;18.70;90.50;;;;;;2095766;28;20275;-69
2022/06/15 04:23:19;;;;;;;6.75;3.60;;;18.80;88.60;;;;;;2095266;28;20586;-69
2022/06/15 04:24:21;;;;;;;4.72;3.30;;;19.00;86.60;;;;;;2096962;28;20493;-69
2022/06/15 04:25:22;;;;;;;6.15;3.22;;;19.10;84.50;;;;;;2094724;28;20052;-69
2022/06/15 04:26:23;;;;;;;6.80;3.10;;;19.20;83.60;;;;;;2096877;28;20074;-69
2022/06/15 04:27:23;;;;;;;8.77;3.78;;;19.30;82.30;;;;;;2095299;28;20090;-69
2022/06/15 04:28:26;;;;;;;8.82;3.70;;;19.20;83.90;;;;;;2096380;28;20103;-69
2022/06/15 04:29:27;;;;;;;5.68;2.92;;;19.20;83.70;;;;;;2095867;28;20020;-70
2022/06/15 04:30:28;;;;;;;6.47;2.80;;;19.00;82.00;;;;;;2096297;28;20028;-70
2022/06/15 04:31:28;;;;;;;6.00;3.33;;;19.00;82.10;;;;;;2096233;28;20025;-70
2022/06/15 04:32:29;;;;;;;7.50;3.67;;;18.90;85.30;;;;;;2096551;28;20029;-70
2022/06/15 04:33:29;;;;;;;6.35;2.70;;;18.80;85.10;;;;;;2095524;28;20557;-70
2022/06/15 04:34:30;;;;;;;7.25;2.95;;;18.80;85.80;;;;;;2097604;28;20027;-70
2022/06/15 04:35:31;;;;;;;4.65;3.28;;;18.80;86.90;;;;;;2093944;28;21717;-70
2022/06/15 04:36:33;;;;;;;5.20;3.08;;;18.80;88.80;;;;;;2094117;28;20120;-70
2022/06/15 04:37:33;;;;;;;7.25;3.70;;;18.70;88.70;;;;;;2095721;28;20024;-69
2022/06/15 04:38:34;;;;;;;9.48;3.38;;;18.70;90.30;;;;;;2095074;28;20024;-70
2022/06/15 04:39:35;;;;;;;4.35;2.90;;;18.70;89.40;;;;;;2095827;28;20107;-70
2022/06/15 04:40:37;;;;;;;7.50;3.45;;;18.80;90.60;;;;;;2096125;28;20384;-70
2022/06/15 04:41:39;;;;;;;4.40;2.55;;;18.80;90.80;;;;;;2095696;28;20025;-70
2022/06/15 04:42:41;;;;;;;5.55;3.22;;;18.80;90.90;;;;;;2095766;28;20555;-70
2022/06/15 04:43:42;;;;;;;5.50;3.25;;;18.80;90.90;;;;;;2095490;28;20041;-70
2022/06/15 04:44:43;;;;;;;7.10;3.22;;;18.80;91.00;;;;;;2095950;28;20017;-70
2022/06/15 04:45:43;;;;;;;7.28;3.40;;;18.90;90.40;;;;;;2097142;28;20035;-70
2022/06/15 04:46:44;;;;;;;10.85;4.10;;;18.90;90.10;;;;;;2097618;28;20020;-70
2022/06/15 04:47:45;;;;;;;6.55;3.30;;;18.90;90.80;;;;;;2095290;28;20027;-70
2022/06/15 04:48:45;;;;;;;8.52;3.05;;;19.00;90.50;;;;;;2097895;28;20028;-70
2022/06/15 04:49:46;;;;;;;5.53;2.85;;;19.00;90.90;;;;;;2095551;28;20059;-70
2022/06/15 04:50:47;;;;;;;5.07;3.05;;;19.10;90.60;;;;;;2096387;28;20429;-70
2022/06/15 04:51:47;;;;;;;13.10;3.70;;;19.10;89.60;;;;;;2096766;28;20495;-70
2022/06/15 04:52:48;;;;;;;10.27;4.10;;;19.20;89.70;;;;;;2095359;28;20035;-70
2022/06/15 04:53:50;;;;;;;7.22;3.10;;;19.20;88.70;;;;;;2095990;28;20017;-70
2022/06/15 04:54:51;;;;;;;7.20;3.42;;;19.20;89.10;;;;;;2096638;28;20020;-70
2022/06/15 04:55:51;;;;;;;4.75;3.08;;;19.30;88.50;;;;;;2091788;28;20032;-70
2022/06/15 04:56:52;;;;;;;12.13;3.88;;;19.40;87.40;;;;;;2095169;28;20070;-70
2022/06/15 04:57:54;;;;;;;7.95;3.80;;;19.40;88.20;;;;;;2094222;28;20033;-70
2022/06/15 04:58:55;;;;;;;9.23;4.20;;;19.40;87.40;;;;;;2095711;28;20146;-70
2022/06/15 04:59:55;;;;;;;6.35;3.13;;;19.50;86.20;;;;;;2095436;28;20740;-70
2022/06/15 05:01:04;;;;;;;4.43;3.20;;;19.50;85.70;;;;;;2092927;28;20021;-70
2022/06/15 05:02:04;;;;;;;10.32;4.10;;;19.60;84.90;;;;;;2097476;28;20024;-70
2022/06/15 05:03:06;;;;;;;7.95;3.75;;;19.60;85.80;;;;;;2094396;28;20099;-70
2022/06/15 05:04:07;;;;;;;6.85;3.15;;;19.70;85.80;;;;;;2095605;28;20048;-70
2022/06/15 05:05:08;;;;;;;4.53;3.03;;;19.70;83.90;;;;;;2094574;28;20124;-70
2022/06/15 05:06:33;;;;;;;6.85;3.75;;;19.80;83.60;;;;;;2096796;28;20024;-70
2022/06/15 05:07:34;;;;;;;5.07;3.40;;;19.90;82.70;;;;;;2093443;28;20021;-70
2022/06/15 05:08:34;;;;;;;5.70;3.78;;;19.90;83.00;;;;;;2095202;28;20028;-70
2022/06/15 05:09:35;;;;;;;4.82;3.33;;;19.90;81.80;;;;;;2094889;28;20052;-70
2022/06/15 05:10:36;;;;;;;10.85;4.13;;;19.90;81.40;;;;;;2094782;28;20560;-69
2022/06/15 05:11:37;;;;;;;8.70;3.95;;;20.00;81.80;;;;;;2095128;28;20035;-69
2022/06/15 05:12:38;;;;;;;6.50;3.72;;;20.00;80.40;;;;;;2094849;28;20043;-69
2022/06/15 05:13:38;;;;;;;7.50;3.67;;;20.00;80.30;;;;;;2093013;28;20024;-70
2022/06/15 05:14:39;;;;;;;6.72;3.30;;;20.10;79.00;;;;;;2093551;28;20174;-70
2022/06/15 05:15:40;;;;;;;7.20;3.45;;;20.10;79.30;;;;;;2092548;28;20065;-70
2022/06/15 05:16:41;;;;;;;8.50;3.97;;;20.10;79.20;;;;;;2095543;28;20384;-70
2022/06/15 05:17:44;;;;;;;9.07;3.72;;;20.20;79.70;;;;;;2095249;28;20032;-70
2022/06/15 05:18:45;;;;;;;8.05;3.28;;;20.20;79.40;;;;;;2094530;28;20053;-70
2022/06/15 05:19:45;;;;;;;11.63;3.78;;;20.30;79.80;;;;;;2098381;28;20021;-70
2022/06/15 05:20:46;;;;;;;10.02;3.80;;;20.30;79.60;;;;;;2093129;28;20056;-70
2022/06/15 05:21:46;;;;;;;6.90;3.88;;;20.40;78.50;;;;;;2094158;28;20093;-70
2022/06/15 05:22:51;;;;;;;8.40;4.03;;;20.40;77.60;;;;;;2094369;28;20035;-70
2022/06/15 05:23:52;;;;;;;9.48;4.10;;;20.40;77.70;;;;;;2096194;28;20162;-70
2022/06/15 05:24:53;;;;;;;5.85;3.40;;;20.50;77.50;;;;;;2097872;28;20089;-70
2022/06/15 05:25:53;;;;;;;8.13;3.90;;;20.50;77.30;;;;;;2095100;28;20024;-70
2022/06/15 05:26:54;;;;;;;7.68;3.92;;;20.60;76.70;;;;;;2093849;28;20461;-69
2022/06/15 05:27:55;;;;;;;10.75;3.65;;;20.60;75.90;;;;;;2098661;28;20016;-70
2022/06/15 05:28:56;;;;;;;7.40;4.00;;;20.70;75.90;;;;;;2111319;28;20024;-70
2022/06/15 05:29:56;;;;;;;7.40;3.42;;;20.70;75.40;;;;;;2111396;28;20026;-70
2022/06/15 05:31:14;;;;;;;5.65;3.92;;;20.80;76.00;;;;;;2095389;28;20024;-70
2022/06/15 05:32:15;;;;;;;8.38;3.63;;;20.80;73.50;;;;;;2095370;28;20020;-70
2022/06/15 05:33:16;;;;;;;8.75;3.53;;;20.90;76.10;;;;;;2097944;28;20544;-70
2022/06/15 05:34:16;;;;;;;6.82;3.83;;;21.00;75.10;;;;;;2093829;28;20075;-70
2022/06/15 05:35:17;;;;;;;10.00;4.00;;;21.00;74.80;;;;;;2094807;28;20505;-70
2022/06/15 05:36:18;;;;;;;8.25;3.72;;;21.10;74.20;;;;;;2092451;28;20063;-70
2022/06/15 05:37:18;;;;;;;7.28;3.47;;;21.10;74.00;;;;;;2093287;28;20383;-70
2022/06/15 05:38:19;;;;;;;9.27;4.30;;;21.20;73.10;;;;;;2093975;28;20028;-69
2022/06/15 05:39:19;;;;;;;7.53;3.83;;;21.20;72.30;;;;;;2094188;28;20027;-70